Time;durP1;ratioP1;P1;durP2;ratioP2;P2;SDS_P1;SDS_P2;PMS_P1;PMS_P2;Temp;Humidity;BMP_temperature;BMP_pressure;BME280_temperature;BME280_humidity;BME280_pressure;Samples;Min_cycle;Max_cycle;Signal;HPM_P1;HPM_P2
2022/01/14 00:02:53;;;;;;;64.97;36.40;;;;;;;-0.42;88.45;101623.28;4976309;28;20628;-90
2022/01/14 00:05:19;;;;;;;57.40;28.90;;;;;;;-0.52;88.71;101619.69;4979223;28;20516;-89
2022/01/14 00:07:45;;;;;;;54.37;28.70;;;;;;;-0.61;88.65;101619.59;4979616;28;20231;-91
2022/01/14 00:10:11;;;;;;;55.77;28.30;;;;;;;-0.68;88.56;101618.59;4964398;28;20226;-91
2022/01/14 00:12:51;;;;;;;55.00;26.90;;;;;;;-0.75;88.93;101624.53;4973774;28;20474;-90
2022/01/14 00:15:27;;;;;;;60.03;26.70;;;;;;;-0.81;89.02;101616.72;4982812;28;20196;-91
2022/01/14 00:17:54;;;;;;;51.65;27.35;;;;;;;-0.87;89.16;101626.91;4968203;28;20450;-90
2022/01/14 00:20:30;;;;;;;47.10;26.92;;;;;;;-0.88;89.35;101621.75;4980669;28;20200;-91
2022/01/14 00:22:56;;;;;;;53.60;26.42;;;;;;;-0.89;89.37;101628.63;4978990;28;20206;-91
2022/01/14 00:33:53;;;;;;;50.10;28.35;;;;;;;-0.87;89.20;101621.75;4979415;28;20458;-91
2022/01/14 00:36:19;;;;;;;51.45;28.60;;;;;;;-0.85;89.41;101626.97;4969056;28;20975;-91
2022/01/14 00:38:45;;;;;;;52.33;26.53;;;;;;;-0.86;89.49;101623.53;4979470;28;20208;-89
2022/01/14 00:41:16;;;;;;;53.35;26.75;;;;;;;-0.86;89.50;101628.69;4980061;28;20281;-90
2022/01/14 00:43:44;;;;;;;53.72;27.70;;;;;;;-0.84;89.45;101626.97;4982670;28;20215;-90
2022/01/14 00:46:18;;;;;;;55.38;27.85;;;;;;;-0.85;89.40;101630.41;4984151;28;20578;-91
2022/01/14 00:48:49;;;;;;;61.38;29.35;;;;;;;-0.81;89.43;101631.31;4990951;28;20269;-90
2022/01/14 00:51:17;;;;;;;44.78;25.02;;;;;;;-0.81;89.43;101628.72;4982861;28;20563;-91
2022/01/14 00:53:54;;;;;;;44.90;26.77;;;;;;;-0.80;89.54;101626.19;4983490;28;20784;-91
2022/01/14 01:01:43;;;;;;;55.25;28.17;;;;;;;-0.82;89.43;101624.44;4973105;28;20691;-90
2022/01/14 01:04:21;;;;;;;46.05;23.83;;;;;;;-0.82;89.65;101629.59;4983298;28;20350;-90
2022/01/14 01:06:51;;;;;;;38.10;23.63;;;;;;;-0.80;89.51;101631.34;4984094;28;20307;-90
2022/01/14 01:09:22;;;;;;;52.20;27.17;;;;;;;-0.75;89.54;101634.88;4966557;28;20211;-91
2022/01/14 01:11:53;;;;;;;46.50;26.85;;;;;;;-0.79;89.34;101622.75;4984142;28;20581;-91
2022/01/14 01:14:38;;;;;;;67.47;25.60;;;;;;;-0.86;89.08;101620.94;4988499;28;20360;-90
2022/01/14 01:17:22;;;;;;;48.47;26.52;;;;;;;-0.95;89.09;101623.34;5027082;28;20801;-91
2022/01/14 01:20:09;;;;;;;45.25;24.48;;;;;;;-1.02;89.33;101613.81;5011448;28;20215;-90
2022/01/14 01:22:35;;;;;;;44.20;25.50;;;;;;;-1.07;89.53;101607.69;5025902;28;20720;-91
2022/01/14 01:25:19;;;;;;;36.42;25.60;;;;;;;-1.07;89.36;101608.56;5025027;28;20198;-90
2022/01/14 01:27:53;;;;;;;39.00;22.92;;;;;;;-1.07;89.74;101616.31;5027259;28;20210;-90
2022/01/14 01:33:00;;;;;;;44.67;23.50;;;;;;;-1.06;89.64;101609.44;5026399;28;20215;-90
2022/01/14 01:35:30;;;;;;;44.97;24.88;;;;;;;-1.05;89.72;101608.56;5027474;28;20203;-91
2022/01/14 01:38:15;;;;;;;48.33;23.42;;;;;;;-1.06;89.49;101612.88;5030822;28;20290;-90
2022/01/14 01:40:56;;;;;;;42.40;23.38;;;;;;;-1.09;88.98;101612.81;5014876;28;20215;-91
2022/01/14 01:43:30;;;;;;;51.25;23.40;;;;;;;-1.15;89.05;101610.16;5036639;28;20317;-91
2022/01/14 01:46:50;;;;;;;;;;;;;;;;;;;;;
2022/01/14 01:49:30;;;;;;;49.47;23.45;;;;;;;-1.44;88.76;101604.50;5039085;28;20290;-91
2022/01/14 01:52:10;;;;;;;49.83;20.83;;;;;;;-1.54;88.92;101607.75;4991052;28;20251;-90
2022/01/14 01:54:42;;;;;;;39.55;22.10;;;;;;;-1.69;89.11;101609.22;5002501;28;20219;-90
2022/01/14 01:57:21;;;;;;;36.88;22.05;;;;;;;-1.77;89.05;101613.34;5000401;28;20223;-91
2022/01/14 01:59:47;;;;;;;36.88;20.58;;;;;;;-1.84;89.53;101604.63;4991802;28;20223;-91
2022/01/14 02:02:14;;;;;;;52.78;23.50;;;;;;;-1.86;89.22;101603.75;4978522;28;20271;-91
2022/01/14 02:05:07;;;;;;;49.78;23.42;;;;;;;-1.92;89.36;101607.91;4996782;28;20249;-91
2022/01/14 02:07:44;;;;;;;45.65;22.42;;;;;;;-1.98;89.31;101605.19;5002309;28;20232;-90
2022/01/14 02:10:32;;;;;;;34.25;21.63;;;;;;;-2.01;89.46;101608.59;4985975;28;20222;-90
2022/01/14 02:13:09;;;;;;;45.38;22.00;;;;;;;-2.02;89.62;101610.31;5002729;28;20226;-93
2022/01/14 02:23:33;;;;;;;56.33;24.23;;;;;;;-2.16;89.84;101597.97;5039637;28;20206;-91
2022/01/14 02:26:33;;;;;;;43.58;24.98;;;;;;;-2.17;89.89;101584.22;5034151;28;20226;-91
2022/01/14 02:29:28;;;;;;;46.47;24.88;;;;;;;-2.11;90.18;101588.63;5039866;28;20233;-91
2022/01/14 02:32:08;;;;;;;38.60;26.77;;;;;;;-2.04;90.52;101583.66;5041417;28;20539;-91
2022/01/14 02:35:08;;;;;;;36.40;23.73;;;;;;;-2.00;90.18;101581.97;5041197;28;20210;-91
2022/01/14 02:38:00;;;;;;;38.00;21.88;;;;;;;-1.94;90.30;101582.13;5045004;28;20187;-93
2022/01/14 02:41:03;;;;;;;32.42;20.63;;;;;;;-1.93;90.16;101570.97;5039300;28;20226;-90
2022/01/14 02:44:00;;;;;;;;;;;;;;;;;;;;;
2022/01/14 02:49:58;;;;;;;39.10;19.63;;;;;;;-1.93;89.89;101581.28;5042304;28;20202;-90
2022/01/14 02:53:01;;;;;;;30.27;19.00;;;;;;;-1.96;89.89;101580.34;5045783;28;20224;-91
2022/01/14 02:59:50;;;;;;;27.30;18.88;;;;;;;-2.02;89.92;101574.25;5049640;28;20201;-91
2022/01/14 03:02:20;;;;;;;39.95;21.55;;;;;;;-2.02;89.91;101578.53;5044158;28;20206;-91
2022/01/14 03:05:13;;;;;;;36.17;21.67;;;;;;;-2.02;90.09;101576.81;5053291;28;20207;-92
2022/01/14 03:08:06;;;;;;;33.28;21.17;;;;;;;-1.99;90.15;101572.56;5053901;28;20242;-92
2022/01/14 03:10:33;;;;;;;62.60;22.48;;;;;;;-1.95;90.04;101571.78;5017508;23;20771;-80
2022/01/14 03:12:58;;;;;;;44.77;20.90;;;;;;;-1.97;89.73;101564.03;5004364;28;20298;-81
2022/01/14 03:15:23;;;;;;;70.87;25.23;;;;;;;-1.97;89.64;101568.31;5007700;28;20207;-80
2022/01/14 03:17:49;;;;;;;42.07;22.70;;;;;;;-1.96;89.86;101567.47;5021577;28;20325;-81
2022/01/14 03:20:46;;;;;;;36.97;22.47;;;;;;;-1.96;89.60;101567.47;5008653;28;20206;-81
2022/01/14 03:23:05;;;;;;;47.50;21.38;;;;;;;-1.99;89.88;101570.00;5008647;28;20207;-80
2022/01/14 03:25:48;;;;;;;49.85;22.10;;;;;;;-1.99;89.94;101570.88;5007768;28;20207;-80
2022/01/14 03:28:31;;;;;;;95.65;25.75;;;;;;;-1.97;90.16;101569.19;5006335;28;20241;-80
2022/01/14 03:30:57;;;;;;;125.68;28.88;;;;;;;-1.97;89.68;101565.72;5005840;28;20479;-80
2022/01/14 03:33:22;;;;;;;137.63;27.23;;;;;;;-1.99;89.77;101564.84;5006999;28;20268;-82
2022/01/14 03:35:49;;;;;;;82.97;27.57;;;;;;;-2.05;89.51;101560.47;5007013;28;20223;-80
2022/01/14 03:38:15;;;;;;;63.63;24.63;;;;;;;-2.11;89.47;101565.47;5010520;28;20699;-80
2022/01/14 03:40:40;;;;;;;63.72;24.90;;;;;;;-2.15;89.48;101566.25;5005189;28;20253;-80
2022/01/14 03:43:06;;;;;;;36.40;19.60;;;;;;;-2.20;89.67;101568.72;5010103;28;20211;-81
2022/01/14 03:45:31;;;;;;;35.13;21.47;;;;;;;-2.23;89.36;101566.97;5008945;28;20225;-79
2022/01/14 03:47:57;;;;;;;45.97;22.10;;;;;;;-2.25;89.93;101562.63;5004742;28;20691;-80
2022/01/14 03:50:22;;;;;;;113.30;26.70;;;;;;;-2.27;89.62;101562.59;5010115;28;20214;-81
2022/01/14 03:52:48;;;;;;;37.10;18.83;;;;;;;-2.30;89.60;101562.50;5009219;28;20797;-80
2022/01/14 03:55:14;;;;;;;43.23;18.90;;;;;;;-2.33;89.69;101562.47;5007516;28;20202;-80
2022/01/14 03:57:39;;;;;;;35.50;20.97;;;;;;;-2.31;89.69;101557.34;5008692;28;20211;-80
2022/01/14 04:00:06;;;;;;;63.80;23.73;;;;;;;-2.31;89.55;101558.22;5008342;28;20559;-80
2022/01/14 04:02:31;;;;;;;36.85;21.27;;;;;;;-2.34;89.67;101549.56;5006589;28;20221;-80
2022/01/14 04:04:56;;;;;;;32.57;19.47;;;;;;;-2.35;89.82;101559.00;5003478;28;20214;-82
2022/01/14 04:07:22;;;;;;;37.07;20.60;;;;;;;-2.35;89.88;101556.44;5010256;28;20250;-80
2022/01/14 04:09:47;;;;;;;89.40;22.67;;;;;;;-2.36;89.67;101552.09;5009486;28;20312;-80
2022/01/14 04:12:19;;;;;;;52.37;21.83;;;;;;;-2.38;89.57;101543.47;5004202;28;20203;-80
2022/01/14 04:17:11;;;;;;;27.17;17.23;;;;;;;-2.45;89.42;101537.34;5014275;28;20250;-80
2022/01/14 04:19:37;;;;;;;35.57;19.50;;;;;;;-2.45;89.60;101544.22;5016707;28;20207;-81
2022/01/14 04:22:03;;;;;;;50.65;19.60;;;;;;;-2.43;89.58;101533.94;5015358;28;20213;-80
2022/01/14 04:24:29;;;;;;;41.53;18.17;;;;;;;-2.42;89.70;101522.81;5017133;28;20213;-80
2022/01/14 04:26:54;;;;;;;35.43;21.90;;;;;;;-2.40;89.62;101521.13;5014309;28;20247;-81
2022/01/14 04:29:20;;;;;;;31.13;18.93;;;;;;;-2.37;89.52;101524.66;5014713;28;20207;-82
2022/01/14 04:31:45;;;;;;;26.70;15.90;;;;;;;-2.34;89.62;101518.69;5015600;28;20326;-81
2022/01/14 04:34:10;;;;;;;31.40;17.80;;;;;;;-2.37;89.57;101511.78;5010008;28;20202;-81
2022/01/14 04:36:36;;;;;;;37.80;17.60;;;;;;;-2.40;89.33;101515.97;5014383;28;20235;-81
2022/01/14 04:39:02;;;;;;;31.23;16.30;;;;;;;-2.39;89.63;101512.59;5014876;28;20201;-81
2022/01/14 04:41:28;;;;;;;24.05;17.80;;;;;;;-2.40;88.87;101510.81;5012049;28;20210;-80
2022/01/14 04:43:53;;;;;;;39.87;19.70;;;;;;;-2.41;89.60;101506.53;5013500;28;20321;-80
2022/01/14 04:48:53;;;;;;;26.45;17.13;;;;;;;-2.43;89.43;101503.06;5007233;28;20250;-81
2022/01/14 04:51:20;;;;;;;27.03;15.93;;;;;;;-2.40;89.29;101505.69;5005308;28;20285;-80
2022/01/14 04:53:46;;;;;;;29.63;18.10;;;;;;;-2.42;89.26;101497.09;5004759;28;20237;-80
2022/01/14 04:56:12;;;;;;;25.10;16.03;;;;;;;-2.45;89.26;101498.75;5004332;28;20194;-80
2022/01/14 04:58:37;;;;;;;30.27;17.87;;;;;;;-2.47;89.27;101489.25;5006942;28;20485;-81
2022/01/14 05:01:02;;;;;;;29.23;17.23;;;;;;;-2.46;89.28;101485.84;5011521;28;20262;-83
2022/01/14 05:03:28;;;;;;;23.93;15.03;;;;;;;-2.46;89.44;101479.03;5007517;28;20195;-83
2022/01/14 05:05:57;;;;;;;40.33;17.50;;;;;;;-2.46;89.17;101484.16;5004119;28;20317;-82
2022/01/14 05:08:26;;;;;;;20.05;14.18;;;;;;;-2.50;88.71;101484.94;5005547;28;20247;-81
2022/01/14 05:13:18;;;;;;;26.43;17.00;;;;;;;-2.54;89.03;101472.84;5006214;28;20656;-82
2022/01/14 05:15:43;;;;;;;24.83;16.33;;;;;;;-2.53;88.97;101474.56;5004338;28;20322;-82
2022/01/14 05:18:08;;;;;;;26.03;16.57;;;;;;;-2.53;88.99;101473.72;5004754;28;20211;-81
2022/01/14 05:20:34;;;;;;;27.43;17.97;;;;;;;-2.56;88.97;101461.66;5008784;28;20214;-82
2022/01/14 05:22:59;;;;;;;29.03;18.90;;;;;;;-2.62;88.61;101464.13;5010258;28;20199;-81
2022/01/14 05:25:25;;;;;;;26.03;17.47;;;;;;;-2.67;88.72;101471.72;5011074;28;20234;-81
2022/01/14 05:27:50;;;;;;;26.47;17.10;;;;;;;-2.68;88.92;101467.41;5008191;28;20258;-81
2022/01/14 05:30:16;;;;;;;29.93;17.07;;;;;;;-2.67;89.10;101464.00;5012851;28;20689;-81
2022/01/14 05:32:49;;;;;;;36.92;25.27;;;;;;;-2.49;89.33;101466.06;5011327;28;21079;-81
2022/01/14 05:35:17;;;;;;;43.35;22.65;;;;;;;-2.47;88.97;101466.97;5012113;28;20286;-81
2022/01/14 05:37:43;;;;;;;34.30;22.70;;;;;;;-2.47;89.04;101456.69;5010533;28;20222;-81
2022/01/14 05:40:09;;;;;;;26.30;19.53;;;;;;;-2.47;88.95;101454.09;5012045;28;20206;-81
2022/01/14 05:42:36;;;;;;;29.42;16.80;;;;;;;-2.48;88.81;101465.25;5011004;28;20453;-81
2022/01/14 05:45:06;;;;;;;31.35;20.05;;;;;;;-2.48;88.81;101460.09;5012903;28;20662;-81
2022/01/14 05:47:31;;;;;;;29.38;18.10;;;;;;;-2.48;88.57;101449.81;5015392;28;20218;-81
2022/01/14 05:49:57;;;;;;;44.60;25.57;;;;;;;-2.47;88.48;101448.97;5026836;28;20699;-81
2022/01/14 05:52:22;;;;;;;45.20;24.20;;;;;;;-2.49;88.48;101450.63;5025347;28;20207;-80
2022/01/14 05:54:51;;;;;;;30.50;20.00;;;;;;;-2.50;88.47;101446.34;5019782;28;20206;-81
2022/01/14 05:57:17;;;;;;;25.15;16.20;;;;;;;-2.52;88.15;101452.28;5020114;28;20223;-80
2022/01/14 05:59:42;;;;;;;24.30;16.33;;;;;;;-2.58;88.08;101449.59;5012355;28;20202;-80
2022/01/14 06:02:08;;;;;;;30.30;22.87;;;;;;;-2.56;88.47;101446.22;5008130;28;21023;-80
2022/01/14 06:04:33;;;;;;;21.97;15.47;;;;;;;-2.61;88.05;101454.69;5010734;28;20688;-81
2022/01/14 06:06:59;;;;;;;24.60;15.80;;;;;;;-2.69;87.78;101451.97;5013168;28;20233;-81
2022/01/14 06:09:24;;;;;;;26.60;15.57;;;;;;;-2.77;87.91;101453.50;5012755;28;20270;-81
2022/01/14 06:11:49;;;;;;;24.37;16.97;;;;;;;-2.82;87.94;101455.13;5014921;28;20202;-80
2022/01/14 06:14:15;;;;;;;22.70;14.90;;;;;;;-2.85;87.96;101455.91;5010182;28;20340;-80
2022/01/14 06:16:41;;;;;;;23.30;15.03;;;;;;;-2.87;88.00;101452.44;5012088;28;20226;-82
2022/01/14 06:19:07;;;;;;;24.45;14.93;;;;;;;-2.88;87.95;101463.56;5014008;28;20199;-82
2022/01/14 06:21:32;;;;;;;26.00;16.17;;;;;;;-2.89;87.93;101459.25;5012410;28;20641;-81
2022/01/14 06:23:58;;;;;;;25.17;16.43;;;;;;;-2.88;87.91;101462.72;5014555;28;20215;-82
2022/01/14 06:26:23;;;;;;;25.07;16.33;;;;;;;-2.91;87.81;101460.94;5012051;28;20206;-82
2022/01/14 06:28:49;;;;;;;24.50;16.77;;;;;;;-2.93;87.79;101458.31;5012070;28;20222;-82
2022/01/14 06:31:14;;;;;;;24.20;17.67;;;;;;;-2.92;87.80;101443.75;5013841;28;20226;-81
2022/01/14 06:33:41;;;;;;;24.47;17.67;;;;;;;-2.91;87.65;101455.81;5014253;28;20206;-82
2022/01/14 06:36:07;;;;;;;24.35;16.90;;;;;;;-2.92;87.67;101448.91;5010887;28;21349;-81
2022/01/14 06:38:32;;;;;;;23.17;16.07;;;;;;;-2.95;87.31;101452.28;5011977;28;20257;-81
2022/01/14 06:40:59;;;;;;;26.13;18.93;;;;;;;-2.96;87.56;101450.56;5012285;28;20623;-82
2022/01/14 06:43:24;;;;;;;26.15;20.20;;;;;;;-2.94;87.85;101451.47;5013308;28;20282;-82
2022/01/14 06:45:50;;;;;;;33.37;18.63;;;;;;;-2.92;87.68;101447.22;5015054;28;20230;-81
2022/01/14 06:48:15;;;;;;;36.97;21.67;;;;;;;-2.88;87.33;101461.00;5014329;28;20231;-82
2022/01/14 06:50:41;;;;;;;24.13;16.17;;;;;;;-2.85;87.29;101462.78;5019446;28;20224;-82
2022/01/14 06:53:06;;;;;;;24.03;18.67;;;;;;;-2.84;87.21;101457.66;5010907;28;20270;-82
2022/01/14 06:55:31;;;;;;;25.37;17.33;;;;;;;-2.82;86.98;101465.41;5014939;28;20195;-82
2022/01/14 06:57:57;;;;;;;30.10;18.30;;;;;;;-2.83;87.00;101458.53;5017668;28;20238;-82
2022/01/14 07:00:23;;;;;;;26.43;18.40;;;;;;;-2.87;86.85;101467.00;5015954;28;20203;-82
2022/01/14 07:02:49;;;;;;;22.75;14.77;;;;;;;-2.96;86.79;101468.53;5018977;28;20203;-82
2022/01/14 07:05:14;;;;;;;22.67;15.63;;;;;;;-3.04;86.78;101472.66;5023993;28;20214;-82
2022/01/14 07:07:40;;;;;;;25.20;13.77;;;;;;;-3.10;86.71;101479.38;5020389;23;20246;-76
2022/01/14 07:10:06;;;;;;;20.20;13.67;;;;;;;-3.14;86.84;101476.72;4964178;28;20235;-76
2022/01/14 07:12:38;;;;;;;21.40;14.90;;;;;;;-3.15;87.03;101482.69;4972668;28;20247;-76
2022/01/14 07:15:08;;;;;;;21.77;14.23;;;;;;;-3.13;86.91;101480.19;4980295;28;20676;-76
2022/01/14 07:17:34;;;;;;;20.90;13.80;;;;;;;-3.15;86.72;101479.28;4976919;28;20227;-76
2022/01/14 07:20:05;;;;;;;18.57;12.73;;;;;;;-3.18;86.73;101477.50;4981721;28;20215;-76
2022/01/14 07:22:31;;;;;;;20.45;13.88;;;;;;;-3.20;86.36;101480.88;4985202;28;20242;-76
2022/01/14 07:24:58;;;;;;;18.30;14.40;;;;;;;-3.22;86.80;101485.97;4985945;28;20775;-76
2022/01/14 07:27:23;;;;;;;20.85;15.82;;;;;;;-3.20;86.62;101484.31;4979983;28;20754;-76
2022/01/14 07:29:49;;;;;;;21.63;13.43;;;;;;;-3.18;86.70;101479.22;4990949;28;20213;-76
2022/01/14 07:32:14;;;;;;;24.83;14.23;;;;;;;-3.14;86.52;101481.00;4989624;28;20219;-76
2022/01/14 07:34:40;;;;;;;22.37;14.70;;;;;;;-3.12;86.52;101480.19;4976825;28;20206;-76
2022/01/14 07:37:05;;;;;;;23.00;16.03;;;;;;;-3.07;86.50;101480.31;4984608;28;20763;-76
2022/01/14 07:39:31;;;;;;;23.27;15.47;;;;;;;-3.03;86.46;101481.22;4982279;28;20362;-76
2022/01/14 07:41:56;;;;;;;23.53;16.33;;;;;;;-2.99;86.36;101476.19;4986266;28;20298;-75
2022/01/14 07:44:22;;;;;;;24.07;15.83;;;;;;;-2.93;86.30;101485.75;4979455;28;21432;-77
2022/01/14 07:46:48;;;;;;;23.47;15.97;;;;;;;-2.88;85.85;101480.72;4987767;28;20204;-77
2022/01/14 07:49:14;;;;;;;20.13;14.90;;;;;;;-2.83;85.85;101486.81;4994341;28;20223;-77
2022/01/14 07:51:40;;;;;;;23.80;16.15;;;;;;;-2.79;86.00;101493.75;4986187;28;20230;-77
2022/01/14 07:54:06;;;;;;;26.15;15.75;;;;;;;-2.72;85.95;101503.34;4983468;28;20262;-77
2022/01/14 07:56:36;;;;;;;27.37;15.30;;;;;;;-2.67;86.05;101500.03;4981593;28;20207;-77
2022/01/14 07:59:04;;;;;;;24.65;17.42;;;;;;;-2.61;85.74;101494.13;4984169;28;20208;-77
2022/01/14 08:01:33;;;;;;;21.50;14.23;;;;;;;-2.56;85.48;101494.25;4982802;28;21186;-77
2022/01/14 08:03:59;;;;;;;26.10;16.10;;;;;;;-2.55;85.57;101496.81;4981738;28;20195;-77
2022/01/14 08:06:26;;;;;;;18.48;13.48;;;;;;;-2.58;85.12;101494.19;5000129;28;20218;-77
2022/01/14 08:08:52;;;;;;;23.85;17.10;;;;;;;-2.62;85.13;101495.00;4993051;28;20241;-77
2022/01/14 08:11:20;;;;;;;21.80;14.70;;;;;;;-2.62;85.37;101506.97;4989014;28;20282;-77
2022/01/14 08:13:45;;;;;;;21.05;16.05;;;;;;;-2.59;85.51;101497.63;4985983;28;20702;-77
2022/01/14 08:16:13;;;;;;;22.03;14.63;;;;;;;-2.54;85.29;101493.44;4986511;28;20211;-77
2022/01/14 08:18:39;;;;;;;19.98;14.55;;;;;;;-2.48;85.23;101495.25;4986119;28;20239;-77
2022/01/14 08:21:04;;;;;;;24.37;16.97;;;;;;;-2.42;85.30;101492.81;4986889;28;20215;-77
2022/01/14 08:23:30;;;;;;;24.90;16.33;;;;;;;-2.37;85.21;101496.34;4991976;28;20195;-77
2022/01/14 08:25:57;;;;;;;27.87;16.60;;;;;;;-2.30;85.06;101494.72;4980994;28;20204;-77
2022/01/14 08:28:24;;;;;;;21.73;17.63;;;;;;;-2.24;85.05;101500.88;4982815;28;20495;-77
2022/01/14 08:30:49;;;;;;;32.30;22.55;;;;;;;-2.18;85.22;101507.84;4980044;28;20492;-77
2022/01/14 08:33:15;;;;;;;24.60;17.70;;;;;;;-2.12;84.85;101502.81;4985229;28;20219;-77
2022/01/14 08:35:41;;;;;;;20.20;15.60;;;;;;;-2.07;84.92;101511.50;4981872;28;20591;-77
2022/01/14 08:38:06;;;;;;;21.70;16.70;;;;;;;-2.02;84.80;101504.72;4995118;28;20258;-77
2022/01/14 08:40:32;;;;;;;22.70;16.37;;;;;;;-1.98;84.75;101509.94;4985688;28;20553;-77
2022/01/14 08:42:58;;;;;;;19.70;14.18;;;;;;;-1.95;84.49;101500.53;5002131;28;20203;-77
2022/01/14 08:45:24;;;;;;;26.50;16.83;;;;;;;-1.91;84.65;101499.75;4988235;28;20374;-77
2022/01/14 08:47:52;;;;;;;22.83;15.90;;;;;;;-1.93;84.31;101500.56;4989552;28;20494;-78
2022/01/14 08:50:29;;;;;;;23.85;17.73;;;;;;;-1.92;84.44;101499.72;4990820;28;20207;-77
2022/01/14 08:52:55;;;;;;;23.92;16.65;;;;;;;-1.89;84.57;101494.63;4989870;28;20199;-77
2022/01/14 08:55:22;;;;;;;23.63;15.77;;;;;;;-1.52;85.01;101497.81;4986227;28;20573;-77
2022/01/14 08:57:48;;;;;;;29.50;22.55;;;;;;;-0.28;83.73;101490.06;4986393;28;20327;-77
2022/01/14 09:00:15;;;;;;;21.00;14.77;;;;;;;1.31;80.57;101476.63;4983995;28;20220;-77
2022/01/14 09:02:41;;;;;;;21.05;13.98;;;;;;;2.88;75.96;101470.75;4995583;28;20207;-78
2022/01/14 09:05:07;;;;;;;18.10;13.70;;;;;;;4.14;71.17;101459.78;4988370;28;20191;-78
2022/01/14 09:07:33;;;;;;;23.50;13.65;;;;;;;4.91;68.03;101453.84;4997957;28;20258;-78
2022/01/14 09:09:58;;;;;;;18.50;14.80;;;;;;;5.57;66.32;101439.19;5009690;28;20203;-77
2022/01/14 09:12:23;;;;;;;19.93;15.40;;;;;;;6.35;63.77;101435.44;5016267;28;20209;-77
2022/01/14 09:14:49;;;;;;;23.70;15.90;;;;;;;7.21;62.04;101439.91;5007737;28;20199;-77
2022/01/14 09:17:17;;;;;;;21.43;15.20;;;;;;;7.92;59.15;101427.91;4995689;28;20689;-77
2022/01/14 09:19:43;;;;;;;18.27;16.00;;;;;;;8.61;57.35;101431.44;4997223;28;20226;-75
2022/01/14 09:22:09;;;;;;;21.55;16.58;;;;;;;9.05;55.76;101432.88;5015094;28;20214;-76
2022/01/14 09:24:35;;;;;;;21.50;14.87;;;;;;;9.36;53.85;101421.50;5015475;28;20629;-76
2022/01/14 09:27:01;;;;;;;15.65;13.98;;;;;;;9.40;52.95;101420.50;4998124;28;20230;-75
2022/01/14 09:29:26;;;;;;;18.97;15.33;;;;;;;9.31;52.76;101426.00;5014292;28;20230;-76
2022/01/14 09:31:52;;;;;;;21.47;15.10;;;;;;;8.70;53.18;101435.59;5008273;28;20458;-75
2022/01/14 09:34:17;;;;;;;18.43;14.40;;;;;;;7.87;55.55;101437.63;5013594;28;20580;-75
2022/01/14 09:36:43;;;;;;;18.80;14.50;;;;;;;7.09;56.15;101429.69;5012539;28;20618;-77
2022/01/14 09:39:09;;;;;;;16.80;14.50;;;;;;;6.42;58.42;101437.03;4974499;28;20711;-75
2022/01/14 09:41:34;;;;;;;21.63;15.87;;;;;;;5.95;59.36;101439.53;5010918;28;20194;-78
2022/01/14 09:44:01;;;;;;;21.67;15.90;;;;;;;5.39;60.69;101443.75;5011081;28;20257;-76
2022/01/14 09:46:27;;;;;;;17.70;15.80;;;;;;;4.71;62.37;101442.81;5014605;28;20194;-76
2022/01/14 09:48:53;;;;;;;22.80;16.30;;;;;;;4.06;64.12;101448.56;5013125;28;20747;-76
2022/01/14 09:51:19;;;;;;;20.67;15.93;;;;;;;3.56;65.48;101452.31;5012767;28;20207;-75
2022/01/14 09:53:45;;;;;;;21.27;15.85;;;;;;;3.18;66.81;101461.16;5013548;28;20207;-75
2022/01/14 09:56:18;;;;;;;20.95;15.65;;;;;;;2.89;67.87;101461.25;5008734;28;20666;-76
2022/01/14 09:58:49;;;;;;;18.50;13.70;;;;;;;3.02;67.38;101459.47;5008622;28;20765;-75
2022/01/14 10:01:17;;;;;;;18.33;15.38;;;;;;;3.76;65.63;101462.63;5014176;28;21258;-75
2022/01/14 10:04:01;;;;;;;22.70;14.30;;;;;;;5.19;61.86;101458.78;5010973;28;20210;-77
2022/01/14 10:06:38;;;;;;;20.85;14.48;;;;;;;6.56;58.33;101453.34;5007437;28;20925;-75
2022/01/14 10:09:20;;;;;;;19.08;15.10;;;;;;;7.57;55.44;101449.63;5009493;28;20238;-76
2022/01/14 10:12:05;;;;;;;22.08;14.30;;;;;;;7.96;53.83;101446.09;5011581;28;20891;-75
2022/01/14 10:14:32;;;;;;;23.98;16.50;;;;;;;7.93;54.09;101450.53;4999779;28;20217;-73
2022/01/14 10:17:00;;;;;;;19.13;15.90;;;;;;;7.95;54.00;101454.84;4998612;28;20939;-74
2022/01/14 10:19:33;;;;;;;17.13;15.15;;;;;;;7.83;54.27;101465.63;4990344;28;20234;-73
2022/01/14 10:21:59;;;;;;;21.65;15.40;;;;;;;7.47;54.90;101464.63;5009887;28;20209;-74
2022/01/14 10:24:29;;;;;;;24.23;18.27;;;;;;;7.10;56.33;101460.16;5006379;28;20284;-75
2022/01/14 10:27:00;;;;;;;23.52;17.58;;;;;;;6.50;57.53;101457.78;5001815;28;20225;-72
2022/01/14 10:29:32;;;;;;;20.40;15.18;;;;;;;5.93;59.08;101453.44;4998229;28;20225;-74
2022/01/14 10:32:00;;;;;;;19.67;13.80;;;;;;;5.37;60.43;101455.94;4987016;28;20694;-72
2022/01/14 10:34:26;;;;;;;19.73;15.07;;;;;;;4.82;62.06;101459.19;5009381;28;20210;-73
2022/01/14 10:37:08;;;;;;;20.25;15.55;;;;;;;4.28;63.77;101461.41;5006887;28;20206;-74
2022/01/14 10:39:34;;;;;;;16.58;13.60;;;;;;;3.86;64.85;101459.09;5002509;28;20206;-74
2022/01/14 10:41:59;;;;;;;20.97;16.30;;;;;;;3.52;65.94;101453.22;5010280;28;20209;-74
2022/01/14 10:44:27;;;;;;;22.83;15.67;;;;;;;3.31;66.89;101452.44;5001308;28;20206;-74
2022/01/14 10:47:20;;;;;;;20.67;14.73;;;;;;;3.08;67.23;101444.75;4990154;28;20213;-74
2022/01/14 10:49:48;;;;;;;21.23;13.25;;;;;;;2.92;68.02;101457.75;4995839;28;20222;-74
2022/01/14 10:52:18;;;;;;;17.30;11.30;;;;;;;2.74;67.57;101445.72;5010329;28;20614;-72
2022/01/14 10:54:47;;;;;;;16.85;12.25;;;;;;;2.58;67.80;101447.47;4998513;28;20840;-73
2022/01/14 10:57:13;;;;;;;16.58;12.90;;;;;;;2.48;68.36;101449.19;5001695;28;20623;-74
2022/01/14 10:59:38;;;;;;;16.83;13.43;;;;;;;2.38;68.98;101440.56;5013580;28;20203;-74
2022/01/14 11:02:33;;;;;;;23.10;17.48;;;;;;;2.41;69.20;101437.97;5009868;28;20483;-72
2022/01/14 11:05:07;;;;;;;18.20;13.85;;;;;;;2.39;69.89;101434.50;5012176;28;20249;-73
2022/01/14 11:07:32;;;;;;;24.40;15.40;;;;;;;2.33;70.20;101424.13;5004499;28;20250;-74
2022/01/14 11:09:59;;;;;;;21.57;15.20;;;;;;;2.35;70.27;101426.72;5005311;28;20205;-72
2022/01/14 11:12:25;;;;;;;23.08;15.35;;;;;;;2.38;70.63;101421.56;4987267;28;20222;-72
2022/01/14 11:14:51;;;;;;;17.80;14.20;;;;;;;2.43;70.59;101423.28;4993227;28;20211;-74
2022/01/14 11:17:17;;;;;;;16.38;13.77;;;;;;;2.47;70.33;101418.94;5016381;28;20480;-74
2022/01/14 11:19:46;;;;;;;19.23;13.53;;;;;;;2.42;70.34;101413.75;5013864;28;20353;-72
2022/01/14 11:24:56;;;;;;;17.33;13.73;;;;;;;2.54;69.82;101412.00;5008120;28;20234;-73
2022/01/14 11:27:24;;;;;;;17.53;13.40;;;;;;;2.53;70.03;101410.28;5009485;28;20246;-73
2022/01/14 11:29:57;;;;;;;22.67;14.95;;;;;;;2.53;69.96;101405.09;4988426;28;20206;-73
2022/01/14 11:32:23;;;;;;;20.00;13.65;;;;;;;2.57;69.82;101407.69;5002523;28;20847;-73
2022/01/14 11:34:50;;;;;;;21.73;15.30;;;;;;;2.63;69.44;101396.44;5008983;28;20203;-73
2022/01/14 11:37:35;;;;;;;23.38;14.77;;;;;;;2.72;69.23;101396.41;5007426;28;20707;-72
2022/01/14 11:40:04;;;;;;;19.42;15.68;;;;;;;2.78;69.41;101380.84;5003499;28;20210;-73
2022/01/14 11:42:47;;;;;;;24.58;15.10;;;;;;;2.82;69.82;101387.72;5002949;28;20655;-72
2022/01/14 11:45:15;;;;;;;21.10;15.10;;;;;;;2.81;70.06;101383.41;5000609;28;20206;-71
2022/01/14 11:47:42;;;;;;;21.75;14.70;;;;;;;2.85;70.49;101387.72;4997219;28;20219;-73
2022/01/14 11:50:30;;;;;;;26.05;16.23;;;;;;;2.88;70.49;101385.09;5009307;28;20203;-73
2022/01/14 11:52:59;;;;;;;23.65;16.33;;;;;;;2.91;71.31;101375.59;4999246;28;20206;-73
2022/01/14 11:55:29;;;;;;;27.25;18.27;;;;;;;2.92;70.59;101375.59;5000431;28;21368;-73
2022/01/14 11:58:00;;;;;;;26.55;17.70;;;;;;;2.97;70.80;101367.75;5000703;28;20219;-72
2022/01/14 12:00:25;;;;;;;22.05;16.30;;;;;;;2.98;70.63;101372.09;4998525;28;20198;-72
2022/01/14 12:03:14;;;;;;;24.17;16.43;;;;;;;2.97;70.67;101367.75;4998584;28;20230;-73
2022/01/14 12:05:49;;;;;;;22.77;15.45;;;;;;;2.97;70.75;101365.16;4991795;28;20293;-73
2022/01/14 12:08:15;;;;;;;22.83;16.08;;;;;;;2.98;70.66;101362.59;4994723;28;20327;-72
2022/01/14 12:10:46;;;;;;;27.95;16.80;;;;;;;3.00;70.65;101358.25;5005402;28;20201;-72